Latest Weather Observations for Hervey Bay

IDQ60801

Issued at 12:32 pm EST Tuesday 23 December 2014 (issued every 30 minutes, with the page automatically refreshed every 10 minutes)

About weather observations | Map of weather stations | Latest weather observations for QLD | Other Formats
Station Details ID: 040405 Name: HERVEY BAY AIRPORT Lat: -25.32 Lon: 152.88 Height: 12.98 m
Data from the previous 72 hours. | See also: Recent months at Hervey Bay
Date/Time
EST
Temp
°C
App
Temp
°C
Dew
Point
Rel
Hum
%
Delta-T
°C
Wind Press
QNH
hPa
Press
MSL
hPa
Rain
since 9 am
mm
Dir
 
Spd
km/h
Gust
km/h
Spd
kts
Gust
kts
23/12:30pm 28.8 27.1 17.3 49 7.2 ESE 22 33 12 18 1014.4 1014.3 0.0
23/12:00pm 27.9 26.2 17.1 51 6.8 SE 22 32 12 17 1014.5 1014.4 0.0
23/11:30am 28.8 27.8 16.7 48 7.6 SE 17 28 9 15 1014.7 1014.6 0.0
23/11:00am 28.5 28.0 17.7 52 6.8 ESE 17 32 9 17 1014.9 1014.8 0.0
23/10:30am 28.3 27.0 16.9 50 7.1 SE 19 28 10 15 1015.0 1014.9 0.0
23/10:00am 28.2 27.3 16.8 50 7.1 SE 17 28 9 15 1015.4 1015.3 0.0
23/09:30am 26.8 25.7 16.4 53 6.4 SE 17 24 9 13 1015.7 1015.6 0.0
23/09:00am 26.0 26.1 17.4 59 5.4 SE 13 19 7 10 1015.7 1015.6 0.0
23/08:30am 26.8 27.1 17.0 55 6.1 SSE 11 17 6 9 1015.8 1015.7 0.0
23/08:00am 26.2 26.4 17.6 59 5.4 SSE 13 26 7 14 1015.9 1015.8 0.0
23/07:30am 24.8 25.4 17.8 65 4.4 SSW 11 17 6 9 1015.7 1015.6 0.0
23/07:00am 23.5 24.1 17.7 70 3.6 SSW 11 13 6 7 1015.6 1015.5 0.0
23/06:30am 21.8 21.9 17.4 76 2.7 SSW 13 17 7 9 1015.4 1015.3 0.0
23/06:00am 20.4 20.6 16.8 80 2.2 SW 11 17 6 9 1015.3 1015.2 0.0
23/05:30am 19.6 20.1 17.4 87 1.3 SW 11 17 6 9 1015.1 1015.0 0.0
23/05:00am 19.3 20.0 17.1 87 1.3 SW 9 13 5 7 1014.9 1014.8 0.0
23/04:30am 20.1 20.6 17.5 85 1.6 SW 11 13 6 7 1014.8 1014.7 0.0
23/04:00am 20.5 21.3 17.3 82 2.0 SW 9 13 5 7 1014.5 1014.4 0.0
23/03:30am 22.0 23.2 17.4 75 2.8 SSW 7 9 4 5 1014.4 1014.3 0.0
23/03:00am 22.6 23.9 17.5 73 3.2 SSE 7 9 4 5 1014.3 1014.2 0.0
23/02:30am 23.1 24.0 17.6 71 3.4 SSE 9 13 5 7 1014.4 1014.3 0.0
23/02:00am 23.0 23.1 17.5 71 3.4 SE 13 20 7 11 1014.4 1014.3 0.0
23/01:30am 23.2 22.8 17.2 69 3.7 ESE 15 22 8 12 1014.6 1014.5 0.0
23/01:00am 23.3 22.5 17.1 68 3.8 ESE 17 26 9 14 1014.8 1014.7 0.0
23/12:30am 23.2 23.2 17.2 69 3.7 ESE 13 20 7 11 1015.1 1015.0 0.0
23/12:00am 23.0 22.8 17.5 71 3.4 ESE 15 22 8 12 1015.3 1015.2 0.0
 
Date/Time
EST
Temp
°C
App
Temp
°C
Dew
Point
Rel
Hum
%
Delta-T
°C
Wind Press
QNH
hPa
Press
MSL
hPa
Rain
since 9 am
mm
Dir
 
Spd
km/h
Gust
km/h
Spd
kts
Gust
kts
22/11:30pm 23.6 23.1 17.8 70 3.6 ESE 17 24 9 13 1015.7 1015.6 0.0
22/11:00pm 23.5 23.8 18.8 75 3.0 SE 15 26 8 14 1015.9 1015.8 0.0
22/10:30pm 22.7 23.9 19.1 80 2.3 SE 11 15 6 8 1016.2 1016.1 0.0
22/10:00pm 23.8 24.7 18.4 72 3.4 SSE 11 20 6 11 1016.3 1016.2 0.0
22/09:30pm 23.6 24.1 18.3 72 3.3 SSE 13 19 7 10 1016.3 1016.2 0.0
22/09:00pm 23.5 24.3 18.2 72 3.3 SSE 11 17 6 9 1016.2 1016.1 0.0
22/08:00pm 23.6 23.8 17.6 69 3.7 SE 13 20 7 11 1016.1 1016.0 0.0
22/07:30pm 23.7 23.8 17.4 68 3.9 SSE 13 24 7 13 1016.0 1015.9 0.0
22/07:00pm 23.9 23.4 16.9 65 4.3 SE 15 22 8 12 1015.8 1015.7 0.0
22/06:30pm 24.2 23.6 16.7 63 4.6 SE 15 22 8 12 1015.6 1015.5 0.0
22/06:00pm 25.0 23.4 16.4 59 5.3 SE 20 30 11 16 1015.3 1015.2 0.0
22/05:30pm 25.9 24.3 16.5 56 5.8 SE 20 33 11 18 1014.8 1014.7 0.0
22/05:00pm 26.1 24.1 15.5 52 6.4 SE 20 33 11 18 1014.6 1014.5 0.0
22/04:30pm 26.6 24.6 15.6 50 6.7 SSE 20 30 11 16 1014.4 1014.3 0.0
22/04:00pm 26.5 24.5 15.5 50 6.7 SE 20 30 11 16 1014.3 1014.2 0.0
22/03:30pm 27.0 25.0 15.4 49 7.1 SE 20 30 11 16 1014.2 1014.1 0.0
22/03:00pm 27.8 26.4 17.0 51 6.8 SE 20 35 11 19 1014.3 1014.2 0.0
22/02:30pm 28.0 26.4 16.6 50 7.1 SE 20 35 11 19 1014.8 1014.7 0.0
22/02:00pm 28.2 26.5 17.1 51 7.0 ESE 22 33 12 18 1015.0 1014.9 0.0
22/01:30pm 28.2 25.8 16.5 49 7.3 SE 24 33 13 18 1015.2 1015.1 0.0
22/01:00pm 28.9 27.4 16.8 48 7.6 SE 20 32 11 17 1015.4 1015.3 0.0
22/12:30pm 28.3 26.5 15.9 47 7.6 SE 20 32 11 17 1015.9 1015.8 0.0
22/12:00pm 27.7 25.1 16.0 49 7.2 SE 24 39 13 21 1016.3 1016.2 0.0
22/11:30am 27.8 25.5 15.8 48 7.4 SE 22 33 12 18 1016.5 1016.4 0.0
22/11:00am 27.4 25.1 15.7 48 7.2 SE 22 33 12 18 1016.8 1016.7 0.0
22/10:30am 27.9 26.1 15.9 48 7.4 SE 20 33 11 18 1017.0 1016.9 0.0
22/10:00am 27.9 25.9 15.5 46 7.6 SE 20 35 11 19 1016.9 1016.8 0.0
22/09:30am 27.0 24.6 15.4 49 7.1 ESE 22 33 12 18 1016.7 1016.6 0.0
22/09:00am 26.9 25.1 15.9 51 6.7 SE 20 28 11 15 1016.7 1016.6 0.0
22/08:30am 27.0 25.7 16.9 54 6.3 SSE 19 28 10 15 1016.5 1016.4 0.0
22/08:00am 26.0 24.8 17.1 58 5.5 SE 19 28 10 15 1016.5 1016.4 0.0
22/07:30am 25.5 24.5 16.6 58 5.5 SE 17 28 9 15 1016.4 1016.3 0.0
22/07:00am 25.2 24.7 17.7 63 4.7 SSE 17 28 9 15 1016.2 1016.1 0.0
22/06:30am 24.3 25.6 18.5 70 3.7 S 9 15 5 8 1015.9 1015.8 0.0
22/06:00am 22.9 23.8 18.4 76 2.8 SSW 11 13 6 7 1015.7 1015.6 0.0
22/05:30am 21.7 22.6 18.3 81 2.1 SSW 11 15 6 8 1015.6 1015.5 0.0
22/05:00am 21.3 22.9 18.3 83 1.9 SSW 7 11 4 6 1015.2 1015.1 0.0
22/04:30am 21.2 22.9 18.0 82 2.0 SW 6 9 3 5 1014.8 1014.7 0.0
22/04:00am 21.2 22.7 18.0 82 2.0 SSW 7 9 4 5 1014.8 1014.7 0.0
22/03:30am 20.8 22.2 17.8 83 1.9 SSW 7 9 4 5 1014.8 1014.7 0.0
22/03:00am 20.9 22.2 17.5 81 2.1 S 7 11 4 6 1014.7 1014.6 0.0
22/02:30am 21.2 22.4 17.4 79 2.3 S 7 9 4 5 1014.6 1014.5 0.0
22/02:00am 21.7 22.8 17.1 75 2.8 SSE 7 9 4 5 1014.9 1014.8 0.0
22/01:30am 22.4 23.2 17.3 73 3.1 SSE 9 15 5 8 1015.2 1015.1 0.0
22/01:00am 22.6 23.4 17.3 72 3.3 SE 9 15 5 8 1015.6 1015.5 0.0
22/12:30am 23.0 23.0 17.2 70 3.6 SE 13 19 7 10 1016.1 1016.0 0.0
22/12:00am 23.4 23.7 17.8 71 3.5 SE 13 19 7 10 1016.3 1016.2 0.0
 
Date/Time
EST
Temp
°C
App
Temp
°C
Dew
Point
Rel
Hum
%
Delta-T
°C
Wind Press
QNH
hPa
Press
MSL
hPa
Rain
since 9 am
mm
Dir
 
Spd
km/h
Gust
km/h
Spd
kts
Gust
kts
21/11:30pm 23.3 23.5 17.7 71 3.5 SE 13 20 7 11 1016.7 1016.6 0.0
21/11:00pm 23.4 23.7 17.8 71 3.5 SE 13 19 7 10 1017.2 1017.1 0.0
21/10:30pm 23.5 24.0 17.5 69 3.7 SE 11 17 6 9 1017.5 1017.4 0.0
21/10:00pm 23.9 23.3 17.6 68 3.9 ESE 17 26 9 14 1017.4 1017.3 0.0
21/09:30pm 23.9 23.4 17.9 69 3.8 ESE 17 24 9 13 1017.0 1016.9 0.0
21/09:00pm 24.0 23.5 17.7 68 3.9 ESE 17 28 9 15 1016.8 1016.7 0.0
21/08:30pm 24.0 24.4 18.2 70 3.6 ESE 13 19 7 10 1016.8 1016.7 0.0
21/08:00pm 24.2 23.4 17.9 68 3.9 ESE 19 24 10 13 1016.6 1016.5 0.0
21/07:30pm 24.3 23.8 17.8 67 4.1 ESE 17 30 9 16 1016.2 1016.1 0.0
21/07:00pm 24.5 23.0 17.7 66 4.2 ESE 22 32 12 17 1015.8 1015.7 0.0
21/06:30pm 24.7 23.8 18.2 67 4.1 ESE 20 30 11 16 1015.5 1015.4 0.0
21/06:00pm 25.6 24.4 17.5 61 5.1 ESE 20 28 11 15 1015.2 1015.1 0.0
21/05:30pm 26.4 24.8 17.5 58 5.6 ESE 22 30 12 16 1015.0 1014.9 0.0
21/05:00pm 27.1 26.0 17.8 56 5.9 ESE 20 28 11 15 1014.8 1014.7 0.0
21/04:30pm 27.4 25.9 17.6 55 6.2 ESE 22 30 12 16 1014.7 1014.6 0.0
21/04:00pm 27.8 26.9 18.2 56 6.1 ESE 20 28 11 15 1014.6 1014.5 0.0
21/03:30pm 28.2 27.5 17.4 52 6.8 ESE 17 30 9 16 1014.8 1014.7 0.0
21/03:00pm 28.6 27.0 17.5 51 7.0 ESE 22 30 12 16 1014.9 1014.8 0.0
21/02:30pm 28.3 26.5 16.9 50 7.1 ESE 22 30 12 16 1015.2 1015.1 0.0
21/02:00pm 28.8 27.6 18.3 53 6.7 ESE 22 35 12 19 1015.4 1015.3 0.0
21/01:30pm 29.0 28.2 18.4 52 6.8 ESE 20 30 11 16 1015.6 1015.5 0.0
21/01:00pm 28.9 27.7 18.4 53 6.7 ESE 22 33 12 18 1015.9 1015.8 0.0
21/12:30pm 29.1 28.1 17.9 50 7.1 ESE 20 32 11 17 1016.3 1016.2 0.0
21/12:00pm 29.3 28.1 17.5 49 7.5 ESE 20 32 11 17 1016.6 1016.5 0.0
21/11:30am 29.0 27.9 17.8 50 7.1 E 20 28 11 15 1016.9 1016.8 0.0
21/11:00am 28.3 27.3 17.5 52 6.8 ESE 19 28 10 15 1017.1 1017.0 0.0
21/10:30am 28.4 27.6 17.9 53 6.7 ESE 19 26 10 14 1017.3 1017.2 0.0
21/10:00am 28.4 27.9 17.9 53 6.7 ESE 17 28 9 15 1017.2 1017.1 0.0
21/09:30am 27.9 26.8 17.4 52 6.6 ESE 19 26 10 14 1017.2 1017.1 0.0
21/09:00am 27.8 27.5 18.2 56 6.1 ESE 17 22 9 12 1017.2 1017.1 0.0
21/08:30am 27.3 26.6 18.3 58 5.7 ESE 19 26 10 14 1017.1 1017.0 0.0
21/08:00am 27.0 26.9 18.8 60 5.2 ESE 17 24 9 13 1017.1 1017.0 0.0
21/07:30am 26.6 26.9 19.5 65 4.6 ESE 17 26 9 14 1017.0 1016.9 0.0
21/07:00am 25.5 25.7 19.4 69 3.9 ESE 17 26 9 14 1016.4 1016.3 0.0
21/06:30am 25.0 25.2 19.4 71 3.6 ESE 17 22 9 12 1016.1 1016.0 0.0
21/06:00am 25.2 25.6 19.8 72 3.5 ESE 17 26 9 14 1015.9 1015.8 0.0
21/05:30am 24.3 25.3 19.4 74 3.1 ESE 13 20 7 11 1015.7 1015.6 0.0
21/05:00am 24.5 25.3 19.8 75 3.0 ESE 15 20 8 11 1015.2 1015.1 0.0
21/04:30am 24.1 25.3 19.8 77 2.8 ESE 13 22 7 12 1014.8 1014.7 0.0
21/04:00am 24.1 25.3 19.8 77 2.8 ESE 13 20 7 11 1014.3 1014.2 0.0
21/03:30am 24.3 25.5 20.0 77 2.8 ESE 13 19 7 10 1014.2 1014.1 0.0
21/03:00am 24.4 25.6 19.9 76 2.9 E 13 20 7 11 1014.3 1014.2 0.0
21/02:30am 24.6 25.5 20.1 76 2.9 ESE 15 20 8 11 1014.4 1014.3 0.0
21/02:00am 24.7 25.6 20.0 75 3.0 E 15 20 8 11 1014.5 1014.4 0.0
21/01:30am 24.8 25.1 19.6 73 3.3 E 17 22 9 12 1014.7 1014.6 0.0
21/01:00am 24.8 25.7 20.1 75 3.0 E 15 20 8 11 1015.0 1014.9 0.0
21/12:30am 24.9 25.9 20.2 75 3.1 E 15 20 8 11 1015.4 1015.3 0.0
21/12:00am 25.0 25.1 20.0 74 3.2 E 19 24 10 13 1015.5 1015.4 0.0
 
Date/Time
EST
Temp
°C
App
Temp
°C
Dew
Point
Rel
Hum
%
Delta-T
°C
Wind Press
QNH
hPa
Press
MSL
hPa
Rain
since 9 am
mm
Dir
 
Spd
km/h
Gust
km/h
Spd
kts
Gust
kts
20/11:30pm 25.1 25.6 20.1 74 3.2 ESE 17 24 9 13 1015.6 1015.5 0.0
20/11:00pm 25.1 25.4 20.4 75 3.1 ESE 19 24 10 13 1015.6 1015.5 0.0
20/10:30pm 25.1 25.4 20.4 75 3.1 ESE 19 26 10 14 1015.6 1015.5 0.0
20/10:00pm 25.1 25.9 19.9 73 3.4 ESE 15 20 8 11 1015.8 1015.7 0.0
20/09:30pm 25.1 25.4 19.7 72 3.5 E 17 20 9 11 1015.7 1015.6 0.0
20/09:00pm 25.0 25.4 19.8 73 3.4 E 17 24 9 13 1015.6 1015.5 0.0
20/08:30pm 25.0 25.3 19.6 72 3.5 ESE 17 26 9 14 1015.3 1015.2 0.0
20/08:00pm 25.1 25.1 19.7 72 3.5 ESE 19 24 10 13 1014.9 1014.8 0.0
20/07:30pm 25.1 25.4 19.7 72 3.5 ESE 17 22 9 12 1014.4 1014.3 0.0
20/07:00pm 25.3 25.7 19.9 72 3.5 ESE 17 26 9 14 1014.2 1014.1 0.0
20/06:30pm 25.6 24.9 19.5 69 3.9 ESE 22 30 12 16 1013.4 1013.3 0.0
20/06:00pm 26.1 25.1 18.8 64 4.7 ESE 22 30 12 16 1013.2 1013.1 0.0
20/05:30pm 26.9 25.5 18.7 60 5.2 ESE 24 32 13 17 1012.6 1012.5 0.0
20/05:00pm 27.6 26.3 19.1 59 5.5 ESE 24 35 13 19 1012.3 1012.2 0.0
20/04:30pm 28.6 28.0 19.8 59 5.7 ESE 22 28 12 15 1012.3 1012.2 0.0
20/04:00pm 28.6 27.0 18.4 54 6.5 ESE 24 32 13 17 1012.1 1012.0 0.0
20/03:30pm 29.3 28.2 18.7 52 6.8 ESE 22 30 12 16 1012.2 1012.1 0.0
20/03:00pm 29.3 28.6 18.7 52 6.8 ESE 20 32 11 17 1012.4 1012.3 0.0
20/02:30pm 29.7 29.0 19.4 54 6.7 ESE 22 32 12 17 1012.7 1012.6 0.0
20/02:00pm 29.8 29.2 18.9 52 7.1 ESE 20 30 11 16 1012.9 1012.8 0.0
20/01:30pm 30.0 29.3 19.4 53 6.9 ESE 22 30 12 16 1013.2 1013.1 0.0
20/01:00pm 29.8 29.3 19.2 53 6.9 ESE 20 33 11 18 1013.4 1013.3 0.0

Other Formats:

Comma delimited format used in spreadsheet applications
http://www.bom.gov.au/fwo/IDQ60801/IDQ60801.95565.axf

JavaScript Object Notation format (JSON) in row-major order
http://www.bom.gov.au/fwo/IDQ60801/IDQ60801.95565.json